sensor_id;sensor_type;location;lat;lon;timestamp;pressure;altitude;pressure_sealevel;temperature;humidity
71559;BME280;59382;43.852;25.952;2023-06-22T00:00:55;101443.47;;;26.31;52.38
71559;BME280;59382;43.852;25.952;2023-06-22T00:03:22;101428.03;;;26.25;52.44
71559;BME280;59382;43.852;25.952;2023-06-22T00:05:49;101450.56;;;26.37;52.22
71559;BME280;59382;43.852;25.952;2023-06-22T00:08:15;101441.66;;;26.40;52.38
71559;BME280;59382;43.852;25.952;2023-06-22T00:10:41;101444.97;;;26.42;52.25
71559;BME280;59382;43.852;25.952;2023-06-22T00:13:07;101437.19;;;26.44;52.31
71559;BME280;59382;43.852;25.952;2023-06-22T00:15:34;101425.06;;;26.40;52.61
71559;BME280;59382;43.852;25.952;2023-06-22T00:18:00;101430.00;;;26.43;52.67
71559;BME280;59382;43.852;25.952;2023-06-22T00:20:26;101419.31;;;26.36;52.93
71559;BME280;59382;43.852;25.952;2023-06-22T00:22:59;101399.78;;;26.28;53.01
71559;BME280;59382;43.852;25.952;2023-06-22T00:25:25;101423.66;;;26.42;53.04
71559;BME280;59382;43.852;25.952;2023-06-22T00:27:51;101422.00;;;26.41;52.79
71559;BME280;59382;43.852;25.952;2023-06-22T00:30:17;101421.78;;;26.38;52.81
71559;BME280;59382;43.852;25.952;2023-06-22T00:32:44;101408.63;;;26.30;52.75
71559;BME280;59382;43.852;25.952;2023-06-22T00:35:10;101421.56;;;26.34;53.10
71559;BME280;59382;43.852;25.952;2023-06-22T00:37:39;101411.38;;;26.30;52.90
71559;BME280;59382;43.852;25.952;2023-06-22T00:40:08;101426.56;;;26.32;53.06
71559;BME280;59382;43.852;25.952;2023-06-22T00:42:34;101429.91;;;26.29;53.24
71559;BME280;59382;43.852;25.952;2023-06-22T00:44:59;101439.66;;;26.27;53.85
71559;BME280;59382;43.852;25.952;2023-06-22T00:47:25;101403.97;;;26.07;54.09
71559;BME280;59382;43.852;25.952;2023-06-22T00:49:52;101431.94;;;26.24;53.91
71559;BME280;59382;43.852;25.952;2023-06-22T00:52:20;101435.00;;;26.22;53.91
71559;BME280;59382;43.852;25.952;2023-06-22T00:54:51;101421.63;;;26.11;54.25
71559;BME280;59382;43.852;25.952;2023-06-22T00:57:17;101439.66;;;26.08;54.16
71559;BME280;59382;43.852;25.952;2023-06-22T00:59:48;101427.31;;;25.96;54.77
71559;BME280;59382;43.852;25.952;2023-06-22T01:02:13;101432.84;;;25.96;54.72
71559;BME280;59382;43.852;25.952;2023-06-22T01:04:39;101436.22;;;25.93;55.10
71559;BME280;59382;43.852;25.952;2023-06-22T01:07:26;101440.19;;;25.82;55.46
71559;BME280;59382;43.852;25.952;2023-06-22T01:13:41;101427.75;;;25.61;55.69
71559;BME280;59382;43.852;25.952;2023-06-22T01:16:15;101428.94;;;25.55;55.59
71559;BME280;59382;43.852;25.952;2023-06-22T01:18:43;101419.13;;;25.39;55.83
71559;BME280;59382;43.852;25.952;2023-06-22T01:21:14;101427.97;;;25.41;55.92
71559;BME280;59382;43.852;25.952;2023-06-22T01:23:51;101434.06;;;25.38;56.46
71559;BME280;59382;43.852;25.952;2023-06-22T01:26:33;101424.19;;;25.32;56.23
71559;BME280;59382;43.852;25.952;2023-06-22T01:29:02;101422.28;;;25.27;56.38
71559;BME280;59382;43.852;25.952;2023-06-22T01:31:29;101430.28;;;25.29;56.42
71559;BME280;59382;43.852;25.952;2023-06-22T01:33:59;101433.03;;;25.34;56.54
71559;BME280;59382;43.852;25.952;2023-06-22T01:36:26;101424.28;;;25.22;56.69
71559;BME280;59382;43.852;25.952;2023-06-22T01:38:52;101434.75;;;25.25;56.76
71559;BME280;59382;43.852;25.952;2023-06-22T01:41:23;101442.47;;;25.23;56.96
71559;BME280;59382;43.852;25.952;2023-06-22T01:43:50;101441.13;;;25.20;56.70
71559;BME280;59382;43.852;25.952;2023-06-22T01:46:17;101443.06;;;25.20;56.65
71559;BME280;59382;43.852;25.952;2023-06-22T01:48:45;101453.53;;;25.23;56.59
71559;BME280;59382;43.852;25.952;2023-06-22T01:51:10;101450.22;;;25.21;57.04
71559;BME280;59382;43.852;25.952;2023-06-22T01:53:36;101450.78;;;25.23;56.89
71559;BME280;59382;43.852;25.952;2023-06-22T01:56:02;101458.47;;;25.26;56.75
71559;BME280;59382;43.852;25.952;2023-06-22T01:58:29;101456.59;;;25.21;56.86
71559;BME280;59382;43.852;25.952;2023-06-22T02:01:03;101470.66;;;25.25;56.89
71559;BME280;59382;43.852;25.952;2023-06-22T02:03:35;101453.59;;;25.18;56.85
71559;BME280;59382;43.852;25.952;2023-06-22T02:06:14;101458.75;;;25.24;57.02
71559;BME280;59382;43.852;25.952;2023-06-22T02:08:49;101451.91;;;25.22;56.89
71559;BME280;59382;43.852;25.952;2023-06-22T02:11:18;101469.22;;;25.27;56.95
71559;BME280;59382;43.852;25.952;2023-06-22T02:13:45;101460.13;;;25.27;56.49
71559;BME280;59382;43.852;25.952;2023-06-22T02:16:11;101452.47;;;25.19;56.50
71559;BME280;59382;43.852;25.952;2023-06-22T02:18:38;101467.31;;;25.28;56.63
71559;BME280;59382;43.852;25.952;2023-06-22T02:21:06;101483.88;;;25.28;56.79
71559;BME280;59382;43.852;25.952;2023-06-22T02:23:32;101484.75;;;25.23;56.94
71559;BME280;59382;43.852;25.952;2023-06-22T02:26:00;101483.91;;;25.23;56.77
71559;BME280;59382;43.852;25.952;2023-06-22T02:28:27;101483.91;;;25.23;57.15
71559;BME280;59382;43.852;25.952;2023-06-22T02:30:53;101478.69;;;25.21;56.84
71559;BME280;59382;43.852;25.952;2023-06-22T02:33:18;101472.38;;;25.16;56.82
71559;BME280;59382;43.852;25.952;2023-06-22T02:35:44;101490.50;;;25.27;56.96
71559;BME280;59382;43.852;25.952;2023-06-22T02:38:10;101492.69;;;25.30;56.71
71559;BME280;59382;43.852;25.952;2023-06-22T02:40:36;101495.44;;;25.35;56.39
71559;BME280;59382;43.852;25.952;2023-06-22T02:43:02;101494.34;;;25.31;56.64
71559;BME280;59382;43.852;25.952;2023-06-22T02:45:28;101503.69;;;25.40;56.73
71559;BME280;59382;43.852;25.952;2023-06-22T02:47:55;101493.81;;;25.34;56.64
71559;BME280;59382;43.852;25.952;2023-06-22T02:50:20;101507.81;;;25.42;56.59
71559;BME280;59382;43.852;25.952;2023-06-22T02:52:46;101513.59;;;25.46;56.67
71559;BME280;59382;43.852;25.952;2023-06-22T02:55:11;101498.69;;;25.42;56.77
71559;BME280;59382;43.852;25.952;2023-06-22T02:57:37;101500.88;;;25.45;56.70
71559;BME280;59382;43.852;25.952;2023-06-22T03:00:04;101514.66;;;25.50;56.53
71559;BME280;59382;43.852;25.952;2023-06-22T03:02:45;101514.16;;;25.43;56.47
71559;BME280;59382;43.852;25.952;2023-06-22T03:05:11;101525.72;;;25.45;56.32
71559;BME280;59382;43.852;25.952;2023-06-22T03:07:41;101524.19;;;25.34;56.65
71559;BME280;59382;43.852;25.952;2023-06-22T03:10:11;101524.75;;;25.31;56.89
71559;BME280;59382;43.852;25.952;2023-06-22T03:12:41;101526.41;;;25.27;56.81
71559;BME280;59382;43.852;25.952;2023-06-22T03:15:08;101511.59;;;25.18;56.87
71559;BME280;59382;43.852;25.952;2023-06-22T03:17:35;101512.66;;;25.22;56.76
71559;BME280;59382;43.852;25.952;2023-06-22T03:20:01;101508.88;;;25.13;56.61
71559;BME280;59382;43.852;25.952;2023-06-22T03:22:33;101522.59;;;25.23;56.81
71559;BME280;59382;43.852;25.952;2023-06-22T03:24:59;101519.28;;;25.21;56.43
71559;BME280;59382;43.852;25.952;2023-06-22T03:27:24;101509.41;;;25.15;56.45
71559;BME280;59382;43.852;25.952;2023-06-22T03:29:50;101522.31;;;25.24;56.61
71559;BME280;59382;43.852;25.952;2023-06-22T03:32:15;101504.97;;;25.14;56.48
71559;BME280;59382;43.852;25.952;2023-06-22T03:34:41;101498.88;;;25.17;56.45
71559;BME280;59382;43.852;25.952;2023-06-22T03:37:13;101517.03;;;25.28;56.47
71559;BME280;59382;43.852;25.952;2023-06-22T03:39:39;101496.38;;;25.20;56.47
71559;BME280;59382;43.852;25.952;2023-06-22T03:42:05;101505.94;;;25.33;56.16
71559;BME280;59382;43.852;25.952;2023-06-22T03:44:31;101494.41;;;25.21;56.39
71559;BME280;59382;43.852;25.952;2023-06-22T03:46:56;101484.56;;;25.15;56.10
71559;BME280;59382;43.852;25.952;2023-06-22T03:49:21;101505.16;;;25.27;56.36
71559;BME280;59382;43.852;25.952;2023-06-22T03:51:47;101503.72;;;25.35;55.84
71559;BME280;59382;43.852;25.952;2023-06-22T03:54:12;101509.69;;;25.47;56.24
71559;BME280;59382;43.852;25.952;2023-06-22T03:56:38;101509.66;;;25.52;55.54
71559;BME280;59382;43.852;25.952;2023-06-22T03:59:03;101505.16;;;25.61;55.69
71559;BME280;59382;43.852;25.952;2023-06-22T04:01:29;101508.44;;;25.63;55.20
71559;BME280;59382;43.852;25.952;2023-06-22T04:03:54;101503.47;;;25.60;55.36
71559;BME280;59382;43.852;25.952;2023-06-22T04:06:20;101517.47;;;25.68;55.34
71559;BME280;59382;43.852;25.952;2023-06-22T04:08:46;101496.34;;;25.54;54.84
71559;BME280;59382;43.852;25.952;2023-06-22T04:11:17;101524.09;;;25.72;55.10
71559;BME280;59382;43.852;25.952;2023-06-22T04:13:43;101503.97;;;25.67;54.87
71559;BME280;59382;43.852;25.952;2023-06-22T04:16:09;101510.78;;;25.74;54.90
71559;BME280;59382;43.852;25.952;2023-06-22T04:18:34;101514.94;;;25.77;54.94
71559;BME280;59382;43.852;25.952;2023-06-22T04:21:01;101501.16;;;25.72;54.98
71559;BME280;59382;43.852;25.952;2023-06-22T04:23:26;101514.38;;;25.75;54.71
71559;BME280;59382;43.852;25.952;2023-06-22T04:25:52;101520.47;;;25.77;54.63
71559;BME280;59382;43.852;25.952;2023-06-22T04:28:18;101520.94;;;25.84;54.55
71559;BME280;59382;43.852;25.952;2023-06-22T04:30:43;101505.03;;;25.71;54.43
71559;BME280;59382;43.852;25.952;2023-06-22T04:33:13;101535.81;;;25.88;54.46
71559;BME280;59382;43.852;25.952;2023-06-22T04:35:39;101536.31;;;25.95;54.19
71559;BME280;59382;43.852;25.952;2023-06-22T04:38:06;101538.22;;;25.99;54.01
71559;BME280;59382;43.852;25.952;2023-06-22T04:40:32;101541.00;;;25.94;54.34
71559;BME280;59382;43.852;25.952;2023-06-22T04:42:58;101547.88;;;25.97;54.49
71559;BME280;59382;43.852;25.952;2023-06-22T04:45:28;101554.00;;;25.94;54.78
71559;BME280;59382;43.852;25.952;2023-06-22T04:47:54;101539.53;;;25.78;54.77
71559;BME280;59382;43.852;25.952;2023-06-22T04:50:20;101540.97;;;25.71;55.32
71559;BME280;59382;43.852;25.952;2023-06-22T04:52:47;101566.38;;;25.73;55.33
71559;BME280;59382;43.852;25.952;2023-06-22T04:55:14;101555.97;;;25.65;55.57
71559;BME280;59382;43.852;25.952;2023-06-22T04:57:44;101547.53;;;25.51;55.61
71559;BME280;59382;43.852;25.952;2023-06-22T05:00:18;101551.56;;;25.64;55.54
71559;BME280;59382;43.852;25.952;2023-06-22T05:02:45;101545.50;;;25.62;55.58
71559;BME280;59382;43.852;25.952;2023-06-22T05:05:13;101542.72;;;25.62;55.47
71559;BME280;59382;43.852;25.952;2023-06-22T05:07:45;101555.31;;;25.73;55.59
71559;BME280;59382;43.852;25.952;2023-06-22T05:10:13;101551.97;;;25.76;55.37
71559;BME280;59382;43.852;25.952;2023-06-22T05:12:40;101546.69;;;25.79;55.32
71559;BME280;59382;43.852;25.952;2023-06-22T05:15:07;101546.94;;;25.83;55.49
71559;BME280;59382;43.852;25.952;2023-06-22T05:17:33;101548.47;;;25.94;55.30
71559;BME280;59382;43.852;25.952;2023-06-22T05:19:59;101538.50;;;25.98;55.16
71559;BME280;59382;43.852;25.952;2023-06-22T05:22:24;101527.44;;;25.98;54.83
71559;BME280;59382;43.852;25.952;2023-06-22T05:24:51;101530.72;;;26.00;54.77
71559;BME280;59382;43.852;25.952;2023-06-22T05:27:17;101558.16;;;26.20;54.28
71559;BME280;59382;43.852;25.952;2023-06-22T05:29:42;101539.31;;;26.22;54.16
71559;BME280;59382;43.852;25.952;2023-06-22T05:32:08;101537.53;;;26.31;53.34
71559;BME280;59382;43.852;25.952;2023-06-22T05:34:34;101552.91;;;26.42;52.86
71559;BME280;59382;43.852;25.952;2023-06-22T05:37:00;101547.91;;;26.44;52.87
71559;BME280;59382;43.852;25.952;2023-06-22T05:39:25;101546.25;;;26.43;52.84
71559;BME280;59382;43.852;25.952;2023-06-22T05:41:51;101547.53;;;26.50;52.23
71559;BME280;59382;43.852;25.952;2023-06-22T05:44:17;101548.22;;;26.61;52.11
71559;BME280;59382;43.852;25.952;2023-06-22T05:46:44;101549.88;;;26.62;51.68
71559;BME280;59382;43.852;25.952;2023-06-22T05:49:11;101546.00;;;26.63;51.50
71559;BME280;59382;43.852;25.952;2023-06-22T05:51:36;101551.16;;;26.69;51.00
71559;BME280;59382;43.852;25.952;2023-06-22T05:54:02;101536.81;;;26.67;50.97
71559;BME280;59382;43.852;25.952;2023-06-22T05:56:27;101501.84;;;26.53;50.62
71559;BME280;59382;43.852;25.952;2023-06-22T05:58:53;101537.63;;;26.87;50.43
71559;BME280;59382;43.852;25.952;2023-06-22T06:01:19;101542.72;;;26.98;50.26
71559;BME280;59382;43.852;25.952;2023-06-22T06:03:44;101539.94;;;27.17;49.67
71559;BME280;59382;43.852;25.952;2023-06-22T06:06:10;101549.19;;;27.44;49.23
71559;BME280;59382;43.852;25.952;2023-06-22T06:08:37;101537.03;;;27.72;48.63
71559;BME280;59382;43.852;25.952;2023-06-22T06:11:02;101539.38;;;28.11;47.43
71559;BME280;59382;43.852;25.952;2023-06-22T06:13:28;101540.53;;;28.50;47.17
71559;BME280;59382;43.852;25.952;2023-06-22T06:15:53;101548.34;;;28.84;46.17
71559;BME280;59382;43.852;25.952;2023-06-22T06:18:21;101540.16;;;29.15;45.22
71559;BME280;59382;43.852;25.952;2023-06-22T06:20:46;101541.22;;;29.49;45.16
71559;BME280;59382;43.852;25.952;2023-06-22T06:23:12;101537.09;;;29.69;44.66
71559;BME280;59382;43.852;25.952;2023-06-22T06:25:38;101543.00;;;29.98;44.31
71559;BME280;59382;43.852;25.952;2023-06-22T06:28:05;101534.69;;;30.15;43.61
71559;BME280;59382;43.852;25.952;2023-06-22T06:30:31;101542.84;;;30.42;44.33
71559;BME280;59382;43.852;25.952;2023-06-22T06:32:56;101538.44;;;30.58;43.83
71559;BME280;59382;43.852;25.952;2023-06-22T06:35:22;101525.09;;;30.77;43.77
71559;BME280;59382;43.852;25.952;2023-06-22T06:37:48;101546.38;;;31.07;43.60
71559;BME280;59382;43.852;25.952;2023-06-22T06:40:15;101549.34;;;31.19;42.89
71559;BME280;59382;43.852;25.952;2023-06-22T06:42:45;101553.28;;;31.18;42.89
71559;BME280;59382;43.852;25.952;2023-06-22T06:45:15;101555.56;;;31.16;43.05
71559;BME280;59382;43.852;25.952;2023-06-22T06:47:40;101551.47;;;31.22;42.37
71559;BME280;59382;43.852;25.952;2023-06-22T06:50:06;101537.19;;;31.24;42.18
71559;BME280;59382;43.852;25.952;2023-06-22T06:52:32;101540.97;;;31.45;42.16
71559;BME280;59382;43.852;25.952;2023-06-22T06:54:58;101528.31;;;31.47;41.16
71559;BME280;59382;43.852;25.952;2023-06-22T06:57:24;101547.66;;;31.69;40.87
71559;BME280;59382;43.852;25.952;2023-06-22T06:59:55;101526.78;;;31.75;40.31
71559;BME280;59382;43.852;25.952;2023-06-22T07:02:21;101537.75;;;31.97;40.36
71559;BME280;59382;43.852;25.952;2023-06-22T07:04:47;101529.16;;;32.02;40.63
71559;BME280;59382;43.852;25.952;2023-06-22T07:07:13;101542.78;;;32.12;40.41
71559;BME280;59382;43.852;25.952;2023-06-22T07:09:39;101538.81;;;32.13;40.79
71559;BME280;59382;43.852;25.952;2023-06-22T07:12:05;101546.69;;;32.20;40.38
71559;BME280;59382;43.852;25.952;2023-06-22T07:14:30;101534.47;;;32.24;40.43
71559;BME280;59382;43.852;25.952;2023-06-22T07:16:57;101546.59;;;32.37;39.91
71559;BME280;59382;43.852;25.952;2023-06-22T07:19:25;101552.97;;;32.46;39.96
71559;BME280;59382;43.852;25.952;2023-06-22T07:21:52;101545.53;;;32.50;39.44
71559;BME280;59382;43.852;25.952;2023-06-22T07:24:22;101549.66;;;32.53;39.16
71559;BME280;59382;43.852;25.952;2023-06-22T07:26:48;101546.34;;;32.51;38.58
71559;BME280;59382;43.852;25.952;2023-06-22T07:29:18;101537.22;;;32.42;38.36
71559;BME280;59382;43.852;25.952;2023-06-22T07:31:46;101532.56;;;32.46;38.04
71559;BME280;59382;43.852;25.952;2023-06-22T07:34:12;101547.31;;;32.55;37.68
71559;BME280;59382;43.852;25.952;2023-06-22T07:36:38;101547.47;;;32.58;37.46
71559;BME280;59382;43.852;25.952;2023-06-22T07:39:03;101528.72;;;32.59;37.29
71559;BME280;59382;43.852;25.952;2023-06-22T07:41:29;101532.75;;;32.70;36.88
71559;BME280;59382;43.852;25.952;2023-06-22T07:43:55;101536.81;;;32.72;36.81
71559;BME280;59382;43.852;25.952;2023-06-22T07:46:21;101536.72;;;32.69;36.30
71559;BME280;59382;43.852;25.952;2023-06-22T07:48:47;101544.69;;;32.79;36.11
71559;BME280;59382;43.852;25.952;2023-06-22T07:51:12;101545.38;;;32.76;36.22
71559;BME280;59382;43.852;25.952;2023-06-22T07:53:40;101532.41;;;32.71;35.77
71559;BME280;59382;43.852;25.952;2023-06-22T07:56:06;101538.34;;;32.70;35.92
71559;BME280;59382;43.852;25.952;2023-06-22T07:58:34;101547.09;;;32.89;35.40
71559;BME280;59382;43.852;25.952;2023-06-22T08:01:00;101543.00;;;32.86;36.04
71559;BME280;59382;43.852;25.952;2023-06-22T08:03:25;101543.84;;;32.87;35.89
71559;BME280;59382;43.852;25.952;2023-06-22T08:05:51;101541.81;;;32.96;35.44
71559;BME280;59382;43.852;25.952;2023-06-22T08:08:16;101547.22;;;33.13;35.67
71559;BME280;59382;43.852;25.952;2023-06-22T08:10:42;101536.97;;;33.17;35.80
71559;BME280;59382;43.852;25.952;2023-06-22T08:13:08;101531.69;;;33.24;35.30
71559;BME280;59382;43.852;25.952;2023-06-22T08:15:34;101540.66;;;33.29;35.18
71559;BME280;59382;43.852;25.952;2023-06-22T08:17:59;101546.59;;;33.28;35.00
71559;BME280;59382;43.852;25.952;2023-06-22T08:20:26;101544.75;;;33.32;35.18
71559;BME280;59382;43.852;25.952;2023-06-22T08:22:53;101546.84;;;33.35;34.89
71559;BME280;59382;43.852;25.952;2023-06-22T08:25:19;101524.66;;;33.18;35.33
71559;BME280;59382;43.852;25.952;2023-06-22T08:27:45;101538.91;;;33.25;35.02
71559;BME280;59382;43.852;25.952;2023-06-22T08:30:12;101546.81;;;33.23;35.09
71559;BME280;59382;43.852;25.952;2023-06-22T08:32:38;101546.81;;;33.23;35.34
71559;BME280;59382;43.852;25.952;2023-06-22T08:35:03;101541.94;;;33.32;35.24
71559;BME280;59382;43.852;25.952;2023-06-22T08:37:31;101531.94;;;33.31;35.27
71559;BME280;59382;43.852;25.952;2023-06-22T08:40:00;101533.38;;;33.37;35.05
71559;BME280;59382;43.852;25.952;2023-06-22T08:42:36;101536.19;;;33.37;34.79
71559;BME280;59382;43.852;25.952;2023-06-22T08:45:02;101547.84;;;33.39;34.49
71559;BME280;59382;43.852;25.952;2023-06-22T08:47:28;101546.84;;;33.35;34.73
71559;BME280;59382;43.852;25.952;2023-06-22T08:49:54;101542.78;;;33.32;34.75
71559;BME280;59382;43.852;25.952;2023-06-22T08:52:20;101537.53;;;33.31;34.29
71559;BME280;59382;43.852;25.952;2023-06-22T08:54:49;101544.38;;;33.42;34.28
71559;BME280;59382;43.852;25.952;2023-06-22T08:57:14;101528.94;;;33.36;34.08
71559;BME280;59382;43.852;25.952;2023-06-22T08:59:41;101534.78;;;33.43;34.51
71559;BME280;59382;43.852;25.952;2023-06-22T09:02:07;101543.00;;;33.48;34.57
71559;BME280;59382;43.852;25.952;2023-06-22T09:04:32;101533.41;;;33.49;34.24
71559;BME280;59382;43.852;25.952;2023-06-22T09:07:01;101539.50;;;33.51;34.56
71559;BME280;59382;43.852;25.952;2023-06-22T09:09:26;101537.38;;;33.48;34.49
71559;BME280;59382;43.852;25.952;2023-06-22T09:11:52;101535.66;;;33.55;34.84
71559;BME280;59382;43.852;25.952;2023-06-22T09:14:18;101520.00;;;33.54;34.78
71559;BME280;59382;43.852;25.952;2023-06-22T09:16:44;101515.50;;;33.62;34.76
71559;BME280;59382;43.852;25.952;2023-06-22T09:19:09;101521.81;;;33.71;33.93
71559;BME280;59382;43.852;25.952;2023-06-22T09:21:36;101528.69;;;33.73;33.81
71559;BME280;59382;43.852;25.952;2023-06-22T09:24:02;101523.53;;;33.63;33.95
71559;BME280;59382;43.852;25.952;2023-06-22T09:26:28;101523.53;;;33.63;33.91
71559;BME280;59382;43.852;25.952;2023-06-22T09:28:53;101534.03;;;33.66;34.18
71559;BME280;59382;43.852;25.952;2023-06-22T09:31:19;101529.38;;;33.70;34.21
71559;BME280;59382;43.852;25.952;2023-06-22T09:33:53;101528.13;;;33.80;33.95
71559;BME280;59382;43.852;25.952;2023-06-22T09:36:20;101530.56;;;33.81;33.62
71559;BME280;59382;43.852;25.952;2023-06-22T09:38:47;101524.84;;;33.78;33.70
71559;BME280;59382;43.852;25.952;2023-06-22T09:41:13;101524.59;;;33.71;33.81
71559;BME280;59382;43.852;25.952;2023-06-22T09:43:38;101504.28;;;33.62;33.96
71559;BME280;59382;43.852;25.952;2023-06-22T09:46:04;101516.34;;;33.74;33.35
71559;BME280;59382;43.852;25.952;2023-06-22T09:48:30;101500.00;;;33.76;33.21
71559;BME280;59382;43.852;25.952;2023-06-22T09:50:56;101521.13;;;33.86;33.24
71559;BME280;59382;43.852;25.952;2023-06-22T09:53:21;101499.91;;;33.85;33.30
71559;BME280;59382;43.852;25.952;2023-06-22T09:55:47;101504.94;;;33.91;32.76
71559;BME280;59382;43.852;25.952;2023-06-22T09:58:13;101509.06;;;33.94;32.73
71559;BME280;59382;43.852;25.952;2023-06-22T10:00:38;101501.44;;;33.94;32.75
71559;BME280;59382;43.852;25.952;2023-06-22T10:03:04;101519.22;;;33.99;32.37
71559;BME280;59382;43.852;25.952;2023-06-22T10:05:29;101511.03;;;33.93;32.39
71559;BME280;59382;43.852;25.952;2023-06-22T10:07:55;101518.25;;;33.94;32.30
71559;BME280;59382;43.852;25.952;2023-06-22T10:10:20;101515.53;;;33.86;32.21
71559;BME280;59382;43.852;25.952;2023-06-22T10:12:48;101517.84;;;33.84;32.14
71559;BME280;59382;43.852;25.952;2023-06-22T10:15:15;101512.22;;;33.72;32.39
71559;BME280;59382;43.852;25.952;2023-06-22T10:17:40;101519.94;;;33.75;32.38
71559;BME280;59382;43.852;25.952;2023-06-22T10:20:08;101512.47;;;33.67;32.33
71559;BME280;59382;43.852;25.952;2023-06-22T10:22:42;101480.22;;;33.37;32.41
71559;BME280;59382;43.852;25.952;2023-06-22T10:25:09;101498.31;;;33.51;32.56
71559;BME280;59382;43.852;25.952;2023-06-22T10:27:35;101512.56;;;33.46;32.06
71559;BME280;59382;43.852;25.952;2023-06-22T10:30:00;101504.88;;;33.35;32.71
71559;BME280;59382;43.852;25.952;2023-06-22T10:32:26;101500.56;;;33.25;32.36
71559;BME280;59382;43.852;25.952;2023-06-22T10:34:54;101496.44;;;33.23;32.73
71559;BME280;59382;43.852;25.952;2023-06-22T10:37:20;101468.41;;;32.99;32.82
71559;BME280;59382;43.852;25.952;2023-06-22T10:39:46;101489.66;;;33.12;32.88
71559;BME280;59382;43.852;25.952;2023-06-22T10:42:12;101475.28;;;33.01;32.95
71559;BME280;59382;43.852;25.952;2023-06-22T10:44:38;101490.09;;;33.02;33.01
71559;BME280;59382;43.852;25.952;2023-06-22T10:47:06;101479.31;;;32.92;33.53
71559;BME280;59382;43.852;25.952;2023-06-22T10:49:31;101482.09;;;32.92;33.30
71559;BME280;59382;43.852;25.952;2023-06-22T10:51:57;101480.16;;;32.92;33.48
71559;BME280;59382;43.852;25.952;2023-06-22T10:54:24;101471.81;;;32.84;33.56
71559;BME280;59382;43.852;25.952;2023-06-22T10:56:49;101486.41;;;32.89;33.62
71559;BME280;59382;43.852;25.952;2023-06-22T10:59:16;101473.44;;;32.85;33.43
71559;BME280;59382;43.852;25.952;2023-06-22T11:01:41;101459.41;;;32.73;33.45
71559;BME280;59382;43.852;25.952;2023-06-22T11:04:07;101472.19;;;32.74;33.56
71559;BME280;59382;43.852;25.952;2023-06-22T11:06:32;101478.38;;;32.88;33.40
71559;BME280;59382;43.852;25.952;2023-06-22T11:08:58;101467.69;;;32.81;33.38
71559;BME280;59382;43.852;25.952;2023-06-22T11:11:25;101476.06;;;32.90;33.45
71559;BME280;59382;43.852;25.952;2023-06-22T11:13:53;101470.47;;;32.90;33.48
71559;BME280;59382;43.852;25.952;2023-06-22T11:16:18;101470.94;;;32.92;33.41
71559;BME280;59382;43.852;25.952;2023-06-22T11:18:43;101482.84;;;33.01;33.69
71559;BME280;59382;43.852;25.952;2023-06-22T11:21:09;101482.41;;;32.99;33.36
71559;BME280;59382;43.852;25.952;2023-06-22T11:23:34;101468.13;;;32.92;33.46
71559;BME280;59382;43.852;25.952;2023-06-22T11:26:00;101467.34;;;32.83;33.28
71559;BME280;59382;43.852;25.952;2023-06-22T11:28:25;101460.69;;;32.75;33.35
71559;BME280;59382;43.852;25.952;2023-06-22T11:30:51;101470.50;;;32.81;33.26
71559;BME280;59382;43.852;25.952;2023-06-22T11:33:17;101466.41;;;32.79;33.72
71559;BME280;59382;43.852;25.952;2023-06-22T11:35:42;101450.81;;;32.78;33.36
71559;BME280;59382;43.852;25.952;2023-06-22T11:38:08;101460.13;;;32.82;33.58
71559;BME280;59382;43.852;25.952;2023-06-22T11:40:33;101463.63;;;32.79;33.50
71559;BME280;59382;43.852;25.952;2023-06-22T11:42:59;101462.69;;;32.75;33.64
71559;BME280;59382;43.852;25.952;2023-06-22T11:45:25;101451.22;;;32.68;33.76
71559;BME280;59382;43.852;25.952;2023-06-22T11:47:50;101447.47;;;32.64;34.13
71559;BME280;59382;43.852;25.952;2023-06-22T11:50:16;101452.97;;;32.72;34.05
71559;BME280;59382;43.852;25.952;2023-06-22T11:52:46;101457.09;;;32.75;34.16
71559;BME280;59382;43.852;25.952;2023-06-22T11:55:11;101452.44;;;32.79;34.24
71559;BME280;59382;43.852;25.952;2023-06-22T11:57:38;101452.44;;;32.79;33.85
71559;BME280;59382;43.852;25.952;2023-06-22T12:00:04;101448.69;;;32.75;33.94
71559;BME280;59382;43.852;25.952;2023-06-22T12:06:04;101448.78;;;32.66;34.28
71559;BME280;59382;43.852;25.952;2023-06-22T12:08:30;101453.53;;;32.66;34.08
71559;BME280;59382;43.852;25.952;2023-06-22T12:10:55;101439.31;;;32.59;34.68
71559;BME280;59382;43.852;25.952;2023-06-22T12:13:21;101431.13;;;32.54;34.73
71559;BME280;59382;43.852;25.952;2023-06-22T12:15:47;101440.75;;;32.65;34.54
71559;BME280;59382;43.852;25.952;2023-06-22T12:18:12;101440.25;;;32.63;34.20
71559;BME280;59382;43.852;25.952;2023-06-22T12:20:40;101435.84;;;32.62;33.80
71559;BME280;59382;43.852;25.952;2023-06-22T12:23:05;101418.44;;;32.56;33.85
71559;BME280;59382;43.852;25.952;2023-06-22T12:25:31;101435.94;;;32.65;34.03
71559;BME280;59382;43.852;25.952;2023-06-22T12:27:57;101432.81;;;32.67;34.00
71559;BME280;59382;43.852;25.952;2023-06-22T12:30:22;101414.50;;;32.57;33.58
71559;BME280;59382;43.852;25.952;2023-06-22T12:32:48;101419.75;;;32.59;33.67
71559;BME280;59382;43.852;25.952;2023-06-22T12:35:14;101423.69;;;32.58;34.04
71559;BME280;59382;43.852;25.952;2023-06-22T12:37:41;101418.31;;;32.53;34.10
71559;BME280;59382;43.852;25.952;2023-06-22T12:40:07;101415.53;;;32.53;34.24
71559;BME280;59382;43.852;25.952;2023-06-22T12:42:33;101404.41;;;32.44;34.43
71559;BME280;59382;43.852;25.952;2023-06-22T12:44:59;101416.22;;;32.50;34.62